Time;durP1;ratioP1;P1;durP2;ratioP2;P2;SDS_P1;SDS_P2;PMS_P1;PMS_P2;Temp;Humidity;BMP_temperature;BMP_pressure;BME280_temperature;BME280_humidity;BME280_pressure;Samples;Min_cycle;Max_cycle;Signal;HPM_P1;HPM_P2
2021/01/30 00:02:16;;;;;;;;;;;;;;;7.10;47.43;99840.06;6279539;22;19923;-75
2021/01/30 00:04:43;;;;;;;;;;;;;;;7.12;47.59;99841.75;6252999;22;19934;-75
2021/01/30 00:07:10;;;;;;;;;;;;;;;7.18;47.56;99845.13;6275163;22;19937;-75
2021/01/30 00:09:38;;;;;;;;;;;;;;;7.21;47.16;99847.66;6276611;22;19923;-75
2021/01/30 00:12:06;;;;;;;;;;;;;;;7.23;47.48;99843.22;6278558;22;19970;-75
2021/01/30 00:14:34;;;;;;;;;;;;;;;7.24;47.23;99848.44;6281162;22;19923;-75
2021/01/30 00:17:02;;;;;;;;;;;;;;;7.29;46.97;99845.69;6253556;22;19926;-74
2021/01/30 00:19:30;;;;;;;;;;;;;;;7.30;47.10;99843.00;6250320;22;19934;-74
2021/01/30 00:21:58;;;;;;;;;;;;;;;7.32;47.03;99845.59;6273891;22;19955;-75
2021/01/30 00:24:27;;;;;;;;;;;;;;;7.34;46.98;99850.81;6279651;22;19919;-74
2021/01/30 00:26:56;;;;;;;;;;;;;;;7.31;47.29;99846.50;6279521;22;19923;-75
2021/01/30 00:29:24;;;;;;;;;;;;;;;7.34;46.98;99850.81;6253635;22;19937;-75
2021/01/30 00:31:51;;;;;;;;;;;;;;;7.36;46.57;99846.38;6281628;22;19935;-74
2021/01/30 00:34:18;;;;;;;;;;;;;;;7.32;47.25;99846.44;6248879;22;19930;-75
2021/01/30 00:36:48;;;;;;;;;;;;;;;7.30;47.39;99850.91;6275503;22;20143;-79
2021/01/30 00:39:15;;;;;;;;;;;;;;;7.28;47.21;99844.81;6279751;22;19930;-76
2021/01/30 00:41:43;;;;;;;;;;;;;;;7.26;47.06;99851.91;6250929;22;20002;-75
2021/01/30 00:44:10;;;;;;;;;;;;;;;7.24;46.89;99851.06;6253831;22;19934;-75
2021/01/30 00:46:37;;;;;;;;;;;;;;;7.22;46.76;99855.53;6253292;22;19925;-75
2021/01/30 00:49:04;;;;;;;;;;;;;;;7.21;46.94;99847.66;6247964;22;19966;-74
2021/01/30 00:51:32;;;;;;;;;;;;;;;7.15;47.63;99849.53;6248255;22;19926;-74
2021/01/30 00:54:02;;;;;;;;;;;;;;;7.12;47.00;99844.38;6252160;22;19980;-74
2021/01/30 00:56:29;;;;;;;;;;;;;;;7.10;47.36;99840.91;6251519;22;19980;-74
2021/01/30 00:58:56;;;;;;;;;;;;;;;7.06;47.38;99846.31;6279667;22;19923;-75
2021/01/30 01:01:23;;;;;;;;;;;;;;;7.03;47.22;99847.25;6252624;22;20343;-74
2021/01/30 01:03:50;;;;;;;;;;;;;;;7.01;47.31;99846.44;6247502;22;19946;-75
2021/01/30 01:06:18;;;;;;;;;;;;;;;6.96;47.43;99846.56;6248812;22;20147;-75
2021/01/30 01:08:45;;;;;;;;;;;;;;;6.94;47.46;99845.72;6252514;22;19925;-75
2021/01/30 01:11:12;;;;;;;;;;;;;;;6.90;47.11;99854.63;6278846;22;19934;-75
2021/01/30 01:13:39;;;;;;;;;;;;;;;6.88;47.46;99848.56;6280717;22;19919;-74
2021/01/30 01:16:06;;;;;;;;;;;;;;;6.84;47.77;99854.75;6280358;22;19919;-74
2021/01/30 01:18:33;;;;;;;;;;;;;;;6.80;47.41;99856.63;6246642;22;19923;-75
2021/01/30 01:21:00;;;;;;;;;;;;;;;6.76;47.59;99852.38;6247062;22;20536;-74
2021/01/30 01:23:27;;;;;;;;;;;;;;;6.73;47.25;99849.78;6278931;22;20410;-74
2021/01/30 01:25:54;;;;;;;;;;;;;;;6.69;47.36;99848.16;6252115;22;20201;-76
2021/01/30 01:28:22;;;;;;;;;;;;;;;6.66;47.55;99858.75;6252916;22;19927;-75
2021/01/30 01:30:49;;;;;;;;;;;;;;;6.63;47.54;99856.19;6253211;22;19923;-75
2021/01/30 01:33:16;;;;;;;;;;;;;;;6.60;47.65;99854.50;6271850;22;19994;-75
2021/01/30 01:35:42;;;;;;;;;;;;;;;6.56;47.79;99860.75;6275898;22;20000;-75
2021/01/30 01:38:09;;;;;;;;;;;;;;;6.53;47.65;99858.19;6252135;22;19933;-75
2021/01/30 01:40:37;;;;;;;;;;;;;;;6.50;47.58;99865.28;6280311;22;19930;-75
2021/01/30 01:43:06;;;;;;;;;;;;;;;6.47;47.55;99859.22;6278433;22;19992;-75
2021/01/30 01:45:34;;;;;;;;;;;;;;;6.45;47.79;99866.25;6278042;22;19923;-74
2021/01/30 01:48:03;;;;;;;;;;;;;;;6.42;47.69;99868.97;6273913;22;19919;-74
2021/01/30 01:50:35;;;;;;;;;;;;;;;6.41;47.62;99872.50;6278822;22;19929;-75
2021/01/30 01:53:10;;;;;;;;;;;;;;;6.40;47.60;99872.53;6278894;22;19926;-74
2021/01/30 01:55:39;;;;;;;;;;;;;;;6.40;47.60;99869.91;6280357;22;19939;-75
2021/01/30 01:58:06;;;;;;;;;;;;;;;6.40;47.56;99876.03;6251972;22;19919;-75
2021/01/30 02:00:34;;;;;;;;;;;;;;;6.42;47.38;99870.72;6249381;22;19923;-74
2021/01/30 02:03:02;;;;;;;;;;;;;;;6.43;47.36;99877.72;6246515;22;20009;-74
2021/01/30 02:05:32;;;;;;;;;;;;;;;6.44;47.43;99869.78;6278997;22;19923;-75
2021/01/30 02:07:59;;;;;;;;;;;;;;;6.44;47.27;99864.53;6278911;22;19923;-75
2021/01/30 02:10:28;;;;;;;;;;;;;;;6.46;47.19;99867.13;6280493;22;19930;-75
2021/01/30 02:12:58;;;;;;;;;;;;;;;6.50;46.96;99858.28;6279198;22;19967;-75
2021/01/30 02:15:25;;;;;;;;;;;;;;;6.54;47.13;99880.06;6274892;22;19977;-75
2021/01/30 02:17:59;;;;;;;;;;;;;;;6.55;47.03;99872.16;6274671;22;19919;-75
2021/01/30 02:21:01;;;;;;;;;;;;;;;6.54;47.20;99869.56;6252759;22;19971;-74
2021/01/30 02:23:49;;;;;;;;;;;;;;;6.56;46.92;99870.41;6277338;22;19942;-75
2021/01/30 02:26:31;;;;;;;;;;;;;;;6.57;47.05;99878.25;6214868;22;19949;-74
2021/01/30 02:29:08;;;;;;;;;;;;;;;6.55;46.76;99874.78;6250716;22;19925;-74
2021/01/30 02:31:50;;;;;;;;;;;;;;;6.52;46.55;99864.34;6274672;22;19957;-74
2021/01/30 02:34:32;;;;;;;;;;;;;;;6.56;46.87;99873.03;6278244;22;19920;-75
2021/01/30 02:37:03;;;;;;;;;;;;;;;6.53;46.86;99879.22;6253468;22;20511;-74
2021/01/30 02:39:32;;;;;;;;;;;;;;;6.51;47.04;99875.75;6280477;22;19927;-74
2021/01/30 02:42:05;;;;;;;;;;;;;;;6.51;47.06;99885.41;6253315;22;19935;-74
2021/01/30 02:44:35;;;;;;;;;;;;;;;6.48;46.94;99891.59;6274815;22;19930;-74
2021/01/30 02:47:02;;;;;;;;;;;;;;;6.46;46.94;99886.41;6277520;22;19947;-74
2021/01/30 02:49:32;;;;;;;;;;;;;;;6.44;47.02;99887.31;6279304;22;19920;-75
2021/01/30 02:52:02;;;;;;;;;;;;;;;6.39;46.87;99892.69;6281944;22;19973;-75
2021/01/30 02:54:31;;;;;;;;;;;;;;;6.39;46.77;99892.69;6280210;22;19963;-75
2021/01/30 02:56:59;;;;;;;;;;;;;;;6.36;47.00;99894.53;6277101;22;19923;-75
2021/01/30 02:59:28;;;;;;;;;;;;;;;6.34;46.85;99893.69;6276622;22;20260;-73
2021/01/30 03:01:55;;;;;;;;;;;;;;;6.28;46.96;99900.81;6252492;22;19946;-74
2021/01/30 03:04:24;;;;;;;;;;;;;;;6.25;46.73;99895.66;6280227;22;20690;-74
2021/01/30 03:06:56;;;;;;;;;;;;;;;6.23;46.90;99905.31;6280139;22;19931;-74
2021/01/30 03:09:29;;;;;;;;;;;;;;;6.20;47.03;99904.50;6253938;22;19931;-75
2021/01/30 03:12:08;;;;;;;;;;;;;;;6.17;46.82;99902.81;6274139;22;19934;-74
2021/01/30 03:14:39;;;;;;;;;;;;;;;6.15;46.79;99904.63;6277584;22;19923;-74
2021/01/30 03:17:07;;;;;;;;;;;;;;;6.12;47.02;99907.31;6278222;22;19919;-74
2021/01/30 03:19:34;;;;;;;;;;;;;;;6.08;46.82;99911.78;6279666;22;20473;-74
2021/01/30 03:22:03;;;;;;;;;;;;;;;6.07;47.01;99903.94;6254365;22;19923;-74
2021/01/30 03:24:30;;;;;;;;;;;;;;;6.05;46.75;99906.59;6281782;22;19925;-74
2021/01/30 03:26:57;;;;;;;;;;;;;;;6.00;47.05;99907.59;6275385;22;20472;-74
2021/01/30 03:29:25;;;;;;;;;;;;;;;5.96;46.99;99907.63;6248284;22;19919;-74
2021/01/30 03:31:52;;;;;;;;;;;;;;;5.94;47.07;99905.94;6254692;22;19969;-73
2021/01/30 03:34:19;;;;;;;;;;;;;;;5.90;46.86;99913.00;6279621;22;20535;-74
2021/01/30 03:36:46;;;;;;;;;;;;;;;5.89;46.73;99916.53;6281244;22;19925;-75
2021/01/30 03:39:14;;;;;;;;;;;;;;;5.87;46.68;99917.47;6279604;22;19923;-74
2021/01/30 03:41:42;;;;;;;;;;;;;;;5.84;46.67;99907.88;6275954;22;19927;-74
2021/01/30 03:44:11;;;;;;;;;;;;;;;5.86;46.90;99907.84;6276089;22;19980;-73
2021/01/30 03:46:39;;;;;;;;;;;;;;;5.87;46.46;99910.47;6281341;22;19931;-75
2021/01/30 03:49:06;;;;;;;;;;;;;;;5.87;46.52;99915.72;6278894;22;20434;-74
2021/01/30 03:51:33;;;;;;;;;;;;;;;5.86;46.43;99910.47;6280390;22;19929;-74
2021/01/30 03:54:00;;;;;;;;;;;;;;;5.89;46.37;99918.31;6278928;22;19933;-74
2021/01/30 03:56:27;;;;;;;;;;;;;;;5.89;46.36;99913.06;6275231;22;19919;-75
2021/01/30 03:58:54;;;;;;;;;;;;;;;5.90;46.19;99910.38;6277808;22;19931;-74
2021/01/30 04:01:21;;;;;;;;;;;;;;;5.93;46.17;99925.22;6281404;22;19930;-75
2021/01/30 04:03:48;;;;;;;;;;;;;;;5.95;46.33;99918.19;6279640;22;19923;-74
2021/01/30 04:06:16;;;;;;;;;;;;;;;5.97;46.08;99919.00;6280927;22;19970;-74
2021/01/30 04:08:43;;;;;;;;;;;;;;;5.98;45.90;99918.97;6275875;22;19934;-73
2021/01/30 04:11:10;;;;;;;;;;;;;;;6.01;45.82;99922.47;6247617;22;19927;-74
2021/01/30 04:13:56;;;;;;;;;;;;;;;6.02;45.81;99926.81;6280423;22;19930;-74
2021/01/30 04:16:24;;;;;;;;;;;;;;;6.05;45.90;99924.97;6253690;22;19919;-74
2021/01/30 04:18:52;;;;;;;;;;;;;;;6.08;45.46;99934.53;6251942;22;19923;-74
2021/01/30 04:21:19;;;;;;;;;;;;;;;6.09;45.62;99931.91;6280235;22;19923;-74
2021/01/30 04:23:48;;;;;;;;;;;;;;;6.12;45.57;99938.81;6247892;22;19962;-73
2021/01/30 04:26:16;;;;;;;;;;;;;;;6.14;45.43;99935.25;6275578;22;19931;-74
2021/01/30 04:28:43;;;;;;;;;;;;;;;6.19;45.23;99942.19;6281074;22;19919;-74
2021/01/30 04:31:11;;;;;;;;;;;;;;;6.22;45.17;99942.13;6280382;22;20089;-74
2021/01/30 04:33:37;;;;;;;;;;;;;;;6.27;45.17;99943.75;6251904;22;19924;-74
2021/01/30 04:36:06;;;;;;;;;;;;;;;6.32;44.57;99947.13;6252557;22;19931;-74
2021/01/30 04:38:33;;;;;;;;;;;;;;;6.34;45.00;99948.88;6276481;22;20383;-74
2021/01/30 04:41:06;;;;;;;;;;;;;;;6.37;44.77;99951.41;6275093;22;19930;-74
2021/01/30 04:43:36;;;;;;;;;;;;;;;6.39;44.63;99947.84;6279791;22;19923;-74
2021/01/30 04:46:07;;;;;;;;;;;;;;;6.38;44.70;99951.41;6281593;22;19923;-74
2021/01/30 04:48:42;;;;;;;;;;;;;;;6.41;44.68;99948.69;6278940;22;19919;-74
2021/01/30 04:51:16;;;;;;;;;;;;;;;6.42;44.44;99945.19;6253238;22;20388;-74
2021/01/30 04:53:49;;;;;;;;;;;;;;;6.38;44.67;99947.88;6274522;22;19923;-73
2021/01/30 04:56:22;;;;;;;;;;;;;;;6.36;44.85;99942.69;6277060;22;19923;-73
2021/01/30 04:58:54;;;;;;;;;;;;;;;6.37;44.66;99944.41;6281237;22;19969;-73
2021/01/30 05:01:28;;;;;;;;;;;;;;;6.36;44.53;99945.31;6278944;22;19919;-74
2021/01/30 05:04:01;;;;;;;;;;;;;;;6.32;44.28;99951.53;6277379;22;20501;-74
2021/01/30 05:06:46;;;;;;;;;;;;;;;6.34;44.39;99946.25;6248487;22;19923;-73
2021/01/30 05:09:16;;;;;;;;;;;;;;;6.28;44.40;99944.63;6254284;22;19923;-74
2021/01/30 05:11:45;;;;;;;;;;;;;;;6.29;44.43;99951.59;6279184;22;19923;-74
2021/01/30 05:14:15;;;;;;;;;;;;;;;6.25;44.35;99955.19;6279283;22;19966;-74
2021/01/30 05:16:57;;;;;;;;;;;;;;;6.23;44.31;99946.50;6279081;22;19930;-73
2021/01/30 05:19:25;;;;;;;;;;;;;;;6.18;44.41;99951.81;6278914;22;19949;-74
2021/01/30 05:21:54;;;;;;;;;;;;;;;6.17;44.32;99947.47;6247229;22;19933;-74
2021/01/30 05:24:23;;;;;;;;;;;;;;;6.14;44.13;99948.41;6248454;22;19950;-74
2021/01/30 05:26:53;;;;;;;;;;;;;;;6.09;44.59;99952.03;6279445;22;20424;-73
2021/01/30 05:29:24;;;;;;;;;;;;;;;6.07;44.43;99945.97;6279849;22;19923;-73
2021/01/30 05:31:55;;;;;;;;;;;;;;;6.03;44.18;99953.03;6278462;22;19930;-74
2021/01/30 05:34:25;;;;;;;;;;;;;;;6.00;44.37;99946.97;6277220;22;19923;-74
2021/01/30 05:36:56;;;;;;;;;;;;;;;5.96;44.58;99946.13;6274233;22;19950;-73
2021/01/30 05:39:29;;;;;;;;;;;;;;;5.96;44.45;99954.00;6277784;22;20505;-73
2021/01/30 05:42:02;;;;;;;;;;;;;;;5.95;44.47;99947.91;6278978;22;19919;-73
2021/01/30 05:44:35;;;;;;;;;;;;;;;5.94;44.10;99953.19;6281089;22;19919;-73
2021/01/30 05:47:02;;;;;;;;;;;;;;;5.95;44.14;99958.41;6278598;22;19964;-73
2021/01/30 05:49:33;;;;;;;;;;;;;;;5.97;43.77;99961.84;6247965;22;19920;-73
2021/01/30 05:52:02;;;;;;;;;;;;;;;5.97;43.93;99963.63;6249389;22;19923;-73
2021/01/30 05:54:30;;;;;;;;;;;;;;;5.97;43.94;99961.84;6252196;22;20158;-73
2021/01/30 05:56:57;;;;;;;;;;;;;;;6.01;43.65;99967.09;6252895;22;19920;-73
2021/01/30 05:59:25;;;;;;;;;;;;;;;6.01;43.68;99956.59;6254456;22;19925;-73
2021/01/30 06:02:09;;;;;;;;;;;;;;;6.03;43.48;99963.53;6282306;22;19927;-73
2021/01/30 06:04:36;;;;;;;;;;;;;;;6.05;43.63;99963.50;6276739;22;19919;-73
2021/01/30 06:07:03;;;;;;;;;;;;;;;6.07;43.54;99962.56;6278884;22;20630;-73
2021/01/30 06:09:34;;;;;;;;;;;;;;;6.08;43.53;99953.81;6254599;22;19923;-74
2021/01/30 06:12:02;;;;;;;;;;;;;;;6.15;43.44;99960.63;6284202;22;19942;-73
2021/01/30 06:14:32;;;;;;;;;;;;;;;6.17;43.12;99957.97;6285310;22;19923;-73
2021/01/30 06:17:00;;;;;;;;;;;;;;;6.18;43.25;99967.59;6282132;22;19919;-72
2021/01/30 06:19:29;;;;;;;;;;;;;;;6.23;43.09;99964.88;6277292;22;19946;-73
2021/01/30 06:22:13;;;;;;;;;;;;;;;6.26;42.93;99965.66;6283769;22;19919;-73
2021/01/30 06:24:44;;;;;;;;;;;;;;;6.30;42.88;99966.44;6285176;22;19920;-73
2021/01/30 06:27:25;;;;;;;;;;;;;;;6.31;42.93;99976.06;6255920;22;20311;-73
2021/01/30 06:29:54;;;;;;;;;;;;;;;6.35;42.66;99976.88;6283186;22;19930;-72
2021/01/30 06:32:26;;;;;;;;;;;;;;;6.38;42.59;99976.78;6280530;22;19933;-73
2021/01/30 06:34:55;;;;;;;;;;;;;;;6.43;42.40;99986.28;6252378;22;19924;-73
2021/01/30 06:37:35;;;;;;;;;;;;;;;6.47;42.40;99985.34;6256345;22;20006;-74
2021/01/30 06:40:05;;;;;;;;;;;;;;;6.50;42.44;99980.91;6256520;22;19923;-73
2021/01/30 06:42:34;;;;;;;;;;;;;;;6.50;42.47;99991.41;6283994;22;19978;-72
2021/01/30 06:45:02;;;;;;;;;;;;;;;6.51;42.54;99982.63;6284303;22;19925;-73
2021/01/30 06:47:30;;;;;;;;;;;;;;;6.51;42.16;99978.22;6278174;22;19923;-73
2021/01/30 06:49:58;;;;;;;;;;;;;;;6.51;42.27;99982.63;6280664;22;19930;-73
2021/01/30 06:52:26;;;;;;;;;;;;;;;6.50;42.23;99975.66;6283929;22;19926;-73
2021/01/30 06:55:10;;;;;;;;;;;;;;;6.50;42.20;99986.16;6284046;22;19923;-74
2021/01/30 06:57:41;;;;;;;;;;;;;;;6.51;42.21;99986.13;6282977;22;19919;-73
2021/01/30 07:00:22;;;;;;;;;;;;;;;6.48;42.42;99987.06;6279478;22;19919;-73
2021/01/30 07:02:50;;;;;;;;;;;;;;;6.48;42.02;99983.56;6280307;22;20274;-73
2021/01/30 07:05:26;;;;;;;;;;;;;;;6.45;42.23;99987.13;6281940;22;19927;-74
2021/01/30 07:08:03;;;;;;;;;;;;;;;6.41;42.27;99992.47;6282581;22;19976;-74
2021/01/30 07:10:40;;;;;;;;;;;;;;;6.43;42.09;99994.16;6282251;22;20683;-73
2021/01/30 07:13:20;;;;;;;;;;;;;;;6.43;41.96;99981.03;6282513;22;19919;-73
2021/01/30 07:15:57;;;;;;;;;;;;;;;6.40;42.05;99975.00;6277600;22;19926;-72
2021/01/30 07:18:28;;;;;;;;;;;;;;;6.39;41.86;99976.75;6279787;22;19924;-73
2021/01/30 07:21:02;;;;;;;;;;;;;;;6.34;41.85;99965.47;6284003;22;19965;-73
2021/01/30 07:23:34;;;;;;;;;;;;;;;6.35;42.03;99977.72;6255918;22;20284;-73
2021/01/30 07:26:06;;;;;;;;;;;;;;;6.35;42.17;99980.34;6282918;22;19923;-74
2021/01/30 07:28:38;;;;;;;;;;;;;;;6.32;41.91;99977.81;6282591;22;19977;-73
2021/01/30 07:31:10;;;;;;;;;;;;;;;6.30;41.67;99979.59;6278426;22;19919;-77
2021/01/30 07:33:46;;;;;;;;;;;;;;;6.29;41.82;99976.09;6281788;22;19923;-73
2021/01/30 07:36:15;;;;;;;;;;;;;;;6.29;41.73;99980.47;6284503;22;19939;-72
2021/01/30 07:38:46;;;;;;;;;;;;;;;6.29;41.81;99977.84;6283479;22;19930;-73
2021/01/30 07:41:18;;;;;;;;;;;;;;;6.32;41.57;99983.91;6283229;22;19923;-74
2021/01/30 07:43:49;;;;;;;;;;;;;;;6.34;41.37;99983.88;6251633;22;20247;-74
2021/01/30 07:46:18;;;;;;;;;;;;;;;6.37;41.76;99989.06;6279234;22;19923;-73
2021/01/30 07:48:50;;;;;;;;;;;;;;;6.43;41.43;99993.31;6281951;22;20001;-73
2021/01/30 07:51:20;;;;;;;;;;;;;;;6.51;41.04;99996.63;6284017;22;19926;-73
2021/01/30 07:53:47;;;;;;;;;;;;;;;6.66;40.90;99998.06;6255813;22;20001;-72
2021/01/30 07:56:29;;;;;;;;;;;;;;;6.78;40.44;100007.44;6282576;22;20276;-73
2021/01/30 07:59:05;;;;;;;;;;;;;;;6.86;40.40;99996.72;6278115;22;19919;-74
2021/01/30 08:01:50;;;;;;;;;;;;;;;6.93;40.16;100003.56;6251714;22;20303;-72
2021/01/30 08:04:25;;;;;;;;;;;;;;;6.95;39.68;100013.13;6281527;22;19923;-73
2021/01/30 08:06:59;;;;;;;;;;;;;;;6.97;40.11;100013.97;6257494;22;19945;-73
2021/01/30 08:09:30;;;;;;;;;;;;;;;7.05;40.33;100015.53;6283025;22;19982;-72
2021/01/30 08:12:04;;;;;;;;;;;;;;;7.11;40.41;100005.72;6251877;22;19946;-73
2021/01/30 08:14:39;;;;;;;;;;;;;;;7.20;40.32;100016.94;6278691;22;19924;-73
2021/01/30 08:17:09;;;;;;;;;;;;;;;7.25;39.83;100017.66;6282720;22;19976;-74
2021/01/30 08:19:40;;;;;;;;;;;;;;;7.34;40.01;100006.03;6282533;22;19923;-71
2021/01/30 08:22:10;;;;;;;;;;;;;;;7.42;39.62;100015.47;6284134;22;19923;-73
2021/01/30 08:24:45;;;;;;;;;;;;;;;7.50;40.13;100015.28;6284492;22;20349;-74
2021/01/30 08:27:16;;;;;;;;;;;;;;;7.55;40.03;100007.25;6279810;22;19981;-75
2021/01/30 08:29:46;;;;;;;;;;;;;;;7.56;39.81;100017.72;6251818;22;20283;-75
2021/01/30 08:32:33;;;;;;;;;;;;;;;7.61;39.70;100015.84;6283694;22;19924;-74
2021/01/30 08:35:15;;;;;;;;;;;;;;;7.63;40.13;100013.19;6283132;22;19930;-75
2021/01/30 08:37:42;;;;;;;;;;;;;;;7.67;40.03;100000.78;6280708;22;20265;-74
2021/01/30 08:40:12;;;;;;;;;;;;;;;7.76;40.13;99992.63;6283501;22;20427;-73
2021/01/30 08:45:38;;;;;;;;;;;;;;;7.98;39.31;99975.34;6228990;22;19933;-80
2021/01/30 08:48:10;;;;;;;;;;;;;;;8.12;39.04;99979.34;6270406;22;20342;-87
2021/01/30 08:50:40;;;;;;;;;;;;;;;8.25;38.59;99971.94;6270310;22;20010;-85
2021/01/30 08:53:12;;;;;;;;;;;;;;;8.39;38.79;99968.84;6268923;22;19923;-88
2021/01/30 08:55:54;;;;;;;;;;;;;;;8.51;38.83;99978.19;6265465;22;20145;-87
2021/01/30 08:58:39;;;;;;;;;;;;;;;8.79;38.47;99984.31;6236601;22;19981;-82
2021/01/30 09:01:08;;;;;;;;;;;;;;;8.76;38.23;99986.19;6269621;22;19927;-84
2021/01/30 09:03:44;;;;;;;;;;;;;;;8.88;37.98;99995.50;6269385;22;19930;-85
2021/01/30 09:06:31;;;;;;;;;;;;;;;8.98;37.64;99999.53;6269743;22;19919;-85
2021/01/30 09:09:04;;;;;;;;;;;;;;;8.91;38.13;100011.22;6239480;22;19978;-87
2021/01/30 09:11:40;;;;;;;;;;;;;;;8.89;38.21;99991.94;6262526;22;20243;-88
2021/01/30 09:14:31;;;;;;;;;;;;;;;9.02;38.21;99989.75;6268215;22;19938;-87
2021/01/30 09:17:06;;;;;;;;;;;;;;;9.16;38.20;99986.69;6269027;22;19919;-84
2021/01/30 09:19:40;;;;;;;;;;;;;;;9.14;37.91;99984.94;6267842;22;19926;-83
2021/01/30 09:22:12;;;;;;;;;;;;;;;9.26;38.05;99980.19;6269728;22;19994;-84
2021/01/30 09:24:50;;;;;;;;;;;;;;;9.48;37.19;99972.34;6262044;22;20048;-76
2021/01/30 09:27:20;;;;;;;;;;;;;;;9.69;42.00;99981.31;6263089;22;20026;-85
2021/01/30 09:29:48;;;;;;;;;;;;;;;9.58;41.48;99994.88;6251708;22;19928;-87
2021/01/30 09:32:21;;;;;;;;;;;;;;;9.54;42.16;99995.06;6238544;23;19931;-86
2021/01/30 09:34:50;;;;;;;;;;;;;;;9.50;42.27;99988.16;6225999;23;19959;-81
2021/01/30 09:37:31;;;;;;;;;;;;;;;9.50;41.51;99993.44;6208114;23;19927;-88
2021/01/30 09:39:59;;;;;;;;;;;;;;;9.49;41.68;99989.06;6229408;23;19955;-93
2021/01/30 09:42:27;;;;;;;;;;;;;;;9.55;41.25;99992.34;6210028;23;19923;-84
2021/01/30 09:45:02;;;;;;;;;;;;;;;9.69;40.93;99983.94;6237735;23;19920;-92
2021/01/30 09:47:29;;;;;;;;;;;;;;;9.87;40.04;99979.75;6236989;23;19954;-83
2021/01/30 09:49:58;;;;;;;;;;;;;;;9.93;40.27;99986.63;6209102;23;19969;-85
2021/01/30 09:52:25;;;;;;;;;;;;;;;9.91;40.14;99980.50;6232418;23;20548;-84
2021/01/30 09:54:53;;;;;;;;;;;;;;;10.05;39.67;99994.06;6231615;23;19927;-85
2021/01/30 09:57:22;;;;;;;;;;;;;;;10.06;39.42;99985.25;6235883;23;19928;-87
2021/01/30 09:59:55;;;;;;;;;;;;;;;10.20;39.54;100000.56;6210576;23;19923;-86
2021/01/30 10:02:23;;;;;;;;;;;;;;;10.36;38.73;99994.72;6237138;23;19926;-90
2021/01/30 10:05:01;;;;;;;;;;;;;;;10.56;38.47;100010.69;6238679;23;19973;-88
2021/01/30 10:31:54;;;;;;;;;;;;;;;11.34;37.51;100004.94;6239264;22;19980;-82
2021/01/30 10:34:25;;;;;;;;;;;;;;;12.95;34.15;100007.34;6256766;22;20293;-83
2021/01/30 10:36:55;;;;;;;;;;;;;;;13.14;33.35;100018.84;6250703;22;19971;-83
2021/01/30 10:39:23;;;;;;;;;;;;;;;12.86;33.90;100010.44;6255089;22;19970;-83
2021/01/30 10:41:50;;;;;;;;;;;;;;;12.37;34.80;100012.75;6259278;22;19930;-82
2021/01/30 10:44:23;;;;;;;;;;;;;;;12.05;35.62;100010.66;6260428;22;19962;-82
2021/01/30 10:46:54;;;;;;;;;;;;;;;11.95;35.91;100004.94;6260283;22;20000;-81
2021/01/30 10:49:24;;;;;;;;;;;;;;;11.79;36.57;100007.38;6257835;22;20428;-82
2021/01/30 10:51:56;;;;;;;;;;;;;;;11.91;36.30;99997.13;6253939;22;19962;-82
2021/01/30 10:54:25;;;;;;;;;;;;;;;12.25;35.58;100008.88;6234417;22;20358;-83
2021/01/30 10:57:10;;;;;;;;;;;;;;;11.77;36.78;99995.13;6259797;22;19924;-82
2021/01/30 10:59:43;;;;;;;;;;;;;;;12.41;35.46;100001.06;6261157;22;19975;-83
2021/01/30 11:02:21;;;;;;;;;;;;;;;13.61;33.10;99997.84;6263690;22;19990;-83
2021/01/30 11:05:00;;;;;;;;;;;;;;;13.41;33.46;99992.72;6255206;22;20550;-83
2021/01/30 11:07:36;;;;;;;;;;;;;;;12.21;35.73;100004.66;6256915;22;20309;-83
2021/01/30 11:10:03;;;;;;;;;;;;;;;12.99;34.37;100008.06;6263298;22;19992;-84
2021/01/30 11:12:30;;;;;;;;;;;;;;;12.45;35.56;99998.22;6264390;22;19923;-83
2021/01/30 11:14:58;;;;;;;;;;;;;;;13.62;33.36;100009.38;6262651;22;19946;-84
2021/01/30 11:17:25;;;;;;;;;;;;;;;13.97;32.42;100001.31;6265402;22;19923;-84
2021/01/30 11:19:53;;;;;;;;;;;;;;;14.64;31.44;99998.59;6254806;22;19942;-83
2021/01/30 11:22:23;;;;;;;;;;;;;;;14.54;31.18;100000.88;6259800;22;19923;-83
2021/01/30 11:24:51;;;;;;;;;;;;;;;14.73;31.06;100003.38;6261436;22;20312;-82
2021/01/30 11:27:31;;;;;;;;;;;;;;;14.73;30.81;100005.19;6262272;22;20025;-83
2021/01/30 11:29:58;;;;;;;;;;;;;;;15.04;30.36;100004.31;6261374;22;19923;-83
2021/01/30 11:32:26;;;;;;;;;;;;;;;14.20;31.73;100008.06;6259795;22;19945;-83
2021/01/30 11:34:56;;;;;;;;;;;;;;;13.14;33.81;100006.41;6254798;22;19949;-83
2021/01/30 11:37:24;;;;;;;;;;;;;;;13.17;34.06;100003.63;6262948;22;19927;-82
2021/01/30 11:39:51;;;;;;;;;;;;;;;13.58;33.38;100002.50;6262522;22;19976;-83
2021/01/30 11:42:18;;;;;;;;;;;;;;;13.68;33.29;99987.75;6263224;22;19934;-82
2021/01/30 11:44:46;;;;;;;;;;;;;;;13.39;33.84;99992.78;6264197;22;19923;-84
2021/01/30 11:47:13;;;;;;;;;;;;;;;13.07;34.57;100005.03;6257970;22;19927;-83
2021/01/30 11:49:41;;;;;;;;;;;;;;;13.41;33.99;100000.69;6257856;22;20041;-84
2021/01/30 11:52:15;;;;;;;;;;;;;;;13.19;34.62;100004.41;6236602;22;19945;-83
2021/01/30 11:54:43;;;;;;;;;;;;;;;13.37;34.43;99996.47;6264676;22;19975;-83
2021/01/30 11:57:10;;;;;;;;;;;;;;;13.24;34.93;99996.22;6262808;22;19930;-83
2021/01/30 11:59:37;;;;;;;;;;;;;;;14.11;33.19;99989.94;6262616;22;19958;-84
2021/01/30 12:02:04;;;;;;;;;;;;;;;13.17;35.17;99993.00;6258744;22;19923;-84
2021/01/30 12:04:31;;;;;;;;;;;;;;;12.82;36.12;99989.41;6254926;22;19923;-83
2021/01/30 12:06:58;;;;;;;;;;;;;;;12.47;36.60;99992.00;6261683;22;19923;-83
2021/01/30 12:09:25;;;;;;;;;;;;;;;12.29;36.87;99995.44;6262205;22;19919;-81
2021/01/30 12:11:53;;;;;;;;;;;;;;;12.12;37.33;99996.22;6261004;22;20309;-83
2021/01/30 12:14:20;;;;;;;;;;;;;;;11.94;37.60;99999.66;6263648;22;19930;-84
2021/01/30 12:16:51;;;;;;;;;;;;;;;11.84;37.97;100001.84;6256427;22;19998;-84
2021/01/30 12:19:18;;;;;;;;;;;;;;;11.80;37.90;99992.31;6255766;22;19981;-85
2021/01/30 12:21:45;;;;;;;;;;;;;;;11.70;38.01;99988.34;6262350;22;19923;-84
2021/01/30 12:24:12;;;;;;;;;;;;;;;11.62;37.80;99993.97;6263219;22;19951;-83
2021/01/30 12:26:39;;;;;;;;;;;;;;;11.58;37.99;99990.63;6236084;22;19931;-84
2021/01/30 12:29:07;;;;;;;;;;;;;;;11.44;38.39;100000.97;6235138;22;20316;-84
2021/01/30 12:31:34;;;;;;;;;;;;;;;11.36;38.60;99998.63;6227434;22;19927;-85
2021/01/30 12:34:04;;;;;;;;;;;;;;;11.26;38.69;99987.56;6258406;22;19978;-85
2021/01/30 12:36:32;;;;;;;;;;;;;;;11.24;38.79;99993.84;6263582;22;19919;-85
2021/01/30 12:38:59;;;;;;;;;;;;;;;11.17;38.77;99992.41;6235573;22;20357;-84
2021/01/30 12:41:25;;;;;;;;;;;;;;;11.13;38.81;99987.22;6260648;22;20234;-83
2021/01/30 12:43:53;;;;;;;;;;;;;;;11.18;38.77;99987.03;6260265;22;19959;-84
2021/01/30 12:46:21;;;;;;;;;;;;;;;11.15;38.72;99983.66;6256991;22;19931;-84
2021/01/30 12:48:48;;;;;;;;;;;;;;;11.06;38.83;99982.25;6264903;22;20261;-85
2021/01/30 12:51:16;;;;;;;;;;;;;;;10.99;38.73;99978.97;6265845;22;20356;-82
2021/01/30 12:53:42;;;;;;;;;;;;;;;10.97;38.81;99983.50;6266344;22;19929;-85
2021/01/30 12:56:09;;;;;;;;;;;;;;;10.86;39.30;99989.22;6265252;22;19951;-85
2021/01/30 12:58:37;;;;;;;;;;;;;;;10.92;39.20;99982.81;6232430;22;19923;-84
2021/01/30 13:01:04;;;;;;;;;;;;;;;10.92;39.05;99980.19;6255482;22;19923;-85
2021/01/30 13:03:32;;;;;;;;;;;;;;;10.99;39.03;99972.84;6260582;22;20041;-87
2021/01/30 13:05:59;;;;;;;;;;;;;;;10.92;38.94;99972.25;6261794;22;19930;-84
2021/01/30 13:08:26;;;;;;;;;;;;;;;10.95;38.70;99975.63;6233847;22;19959;-82
2021/01/30 13:10:53;;;;;;;;;;;;;;;11.07;38.53;99974.25;6233761;22;19946;-83
2021/01/30 13:13:20;;;;;;;;;;;;;;;10.95;38.65;99967.69;6254809;22;19924;-78
2021/01/30 13:15:47;;;;;;;;;;;;;;;10.89;39.07;99967.94;6254304;22;19931;-76
2021/01/30 13:18:14;;;;;;;;;;;;;;;10.94;39.02;99963.31;6258645;22;20350;-76
2021/01/30 13:20:42;;;;;;;;;;;;;;;11.16;38.33;99967.69;6260269;22;20692;-77
2021/01/30 13:23:09;;;;;;;;;;;;;;;11.37;37.67;99965.06;6260205;22;19919;-77
2021/01/30 13:25:36;;;;;;;;;;;;;;;11.44;37.63;99950.66;6259599;22;19924;-78
2021/01/30 13:28:03;;;;;;;;;;;;;;;12.02;36.53;99954.28;6228300;22;20678;-79
2021/01/30 13:30:31;;;;;;;;;;;;;;;12.05;36.22;99962.09;6226627;22;19954;-79
2021/01/30 13:33:00;;;;;;;;;;;;;;;11.79;37.08;99945.53;6259305;22;20011;-78
2021/01/30 13:35:29;;;;;;;;;;;;;;;11.73;37.11;99948.50;6259480;22;20008;-78
2021/01/30 13:37:57;;;;;;;;;;;;;;;11.84;36.79;99954.16;6259577;22;19980;-79